sensor_id;sensor_type;location;lat;lon;timestamp;temperature;humidity
1129;DHT22;553;51.038;7.216;2022-12-18T00:01:14;-3.40;99.90
1129;DHT22;553;51.038;7.216;2022-12-18T00:03:41;-3.40;99.90
1129;DHT22;553;51.038;7.216;2022-12-18T00:06:09;-3.40;99.90
1129;DHT22;553;51.038;7.216;2022-12-18T00:08:36;-3.50;99.90
1129;DHT22;553;51.038;7.216;2022-12-18T00:11:06;-3.50;99.90
1129;DHT22;553;51.038;7.216;2022-12-18T00:13:34;-3.40;99.90
1129;DHT22;553;51.038;7.216;2022-12-18T00:16:18;-3.40;99.90
1129;DHT22;553;51.038;7.216;2022-12-18T00:18:50;-3.40;99.90
1129;DHT22;553;51.038;7.216;2022-12-18T00:21:17;-3.40;99.90
1129;DHT22;553;51.038;7.216;2022-12-18T00:23:45;-3.40;99.90
1129;DHT22;553;51.038;7.216;2022-12-18T00:26:20;-3.40;99.90
1129;DHT22;553;51.038;7.216;2022-12-18T00:28:49;-3.40;99.90
1129;DHT22;553;51.038;7.216;2022-12-18T00:31:18;-3.40;99.90
1129;DHT22;553;51.038;7.216;2022-12-18T00:33:46;-3.40;99.90
1129;DHT22;553;51.038;7.216;2022-12-18T00:36:20;-3.40;99.90
1129;DHT22;553;51.038;7.216;2022-12-18T00:38:47;-3.40;99.90
1129;DHT22;553;51.038;7.216;2022-12-18T00:41:17;-3.40;99.90
1129;DHT22;553;51.038;7.216;2022-12-18T00:44:05;-3.40;99.90
1129;DHT22;553;51.038;7.216;2022-12-18T00:46:32;-3.40;99.90
1129;DHT22;553;51.038;7.216;2022-12-18T00:48:59;-3.40;99.90
1129;DHT22;553;51.038;7.216;2022-12-18T00:51:26;-3.40;99.90
1129;DHT22;553;51.038;7.216;2022-12-18T00:53:53;-3.40;99.90
1129;DHT22;553;51.038;7.216;2022-12-18T00:56:21;-3.40;99.90
1129;DHT22;553;51.038;7.216;2022-12-18T00:58:48;-3.50;99.90
1129;DHT22;553;51.038;7.216;2022-12-18T01:01:15;-3.40;99.90
1129;DHT22;553;51.038;7.216;2022-12-18T01:03:42;-3.40;99.90
1129;DHT22;553;51.038;7.216;2022-12-18T01:06:11;-3.40;99.90
1129;DHT22;553;51.038;7.216;2022-12-18T01:08:38;-3.50;99.90
1129;DHT22;553;51.038;7.216;2022-12-18T01:11:10;-3.50;99.90
1129;DHT22;553;51.038;7.216;2022-12-18T01:13:38;-3.50;99.90
1129;DHT22;553;51.038;7.216;2022-12-18T01:16:06;-3.50;99.90
1129;DHT22;553;51.038;7.216;2022-12-18T01:18:34;-3.40;99.90
1129;DHT22;553;51.038;7.216;2022-12-18T01:21:06;-3.50;99.90
1129;DHT22;553;51.038;7.216;2022-12-18T01:23:36;-3.50;99.90
1129;DHT22;553;51.038;7.216;2022-12-18T01:26:08;-3.50;99.90
1129;DHT22;553;51.038;7.216;2022-12-18T01:28:36;-3.50;99.90
1129;DHT22;553;51.038;7.216;2022-12-18T01:33:41;-3.50;99.90
1129;DHT22;553;51.038;7.216;2022-12-18T01:36:08;-3.50;99.90
1129;DHT22;553;51.038;7.216;2022-12-18T01:38:40;-3.50;99.90
1129;DHT22;553;51.038;7.216;2022-12-18T01:41:08;-3.40;99.90
1129;DHT22;553;51.038;7.216;2022-12-18T01:43:55;-3.40;99.90
1129;DHT22;553;51.038;7.216;2022-12-18T01:46:24;-3.40;99.90
1129;DHT22;553;51.038;7.216;2022-12-18T01:49:00;-3.40;99.90
1129;DHT22;553;51.038;7.216;2022-12-18T01:51:29;-3.30;99.90
1129;DHT22;553;51.038;7.216;2022-12-18T01:53:57;-3.30;99.90
1129;DHT22;553;51.038;7.216;2022-12-18T01:56:24;-3.30;99.90
1129;DHT22;553;51.038;7.216;2022-12-18T01:59:03;-3.40;99.90
1129;DHT22;553;51.038;7.216;2022-12-18T02:01:31;-3.30;99.90
1129;DHT22;553;51.038;7.216;2022-12-18T02:06:54;-3.30;99.90
1129;DHT22;553;51.038;7.216;2022-12-18T02:09:31;-3.40;99.90
1129;DHT22;553;51.038;7.216;2022-12-18T02:12:16;-3.30;99.90
1129;DHT22;553;51.038;7.216;2022-12-18T02:17:17;-3.40;99.90
1129;DHT22;553;51.038;7.216;2022-12-18T02:22:44;-3.40;99.90
1129;DHT22;553;51.038;7.216;2022-12-18T02:25:25;-3.40;99.90
1129;DHT22;553;51.038;7.216;2022-12-18T02:27:59;-3.40;99.90
1129;DHT22;553;51.038;7.216;2022-12-18T02:30:30;-3.40;99.90
1129;DHT22;553;51.038;7.216;2022-12-18T02:32:59;-3.50;99.90
1129;DHT22;553;51.038;7.216;2022-12-18T02:35:29;-3.40;99.90
1129;DHT22;553;51.038;7.216;2022-12-18T02:37:59;-3.40;99.90
1129;DHT22;553;51.038;7.216;2022-12-18T02:40:29;-3.40;99.90
1129;DHT22;553;51.038;7.216;2022-12-18T02:43:13;-3.40;99.90
1129;DHT22;553;51.038;7.216;2022-12-18T02:45:55;-3.40;99.90
1129;DHT22;553;51.038;7.216;2022-12-18T02:48:33;-3.30;99.90
1129;DHT22;553;51.038;7.216;2022-12-18T02:51:31;-3.30;99.90
1129;DHT22;553;51.038;7.216;2022-12-18T02:54:21;-3.30;99.90
1129;DHT22;553;51.038;7.216;2022-12-18T02:56:55;-3.30;99.90
1129;DHT22;553;51.038;7.216;2022-12-18T02:59:31;-3.40;99.90
1129;DHT22;553;51.038;7.216;2022-12-18T03:02:17;-3.40;99.90
1129;DHT22;553;51.038;7.216;2022-12-18T03:05:03;-3.40;99.90
1129;DHT22;553;51.038;7.216;2022-12-18T03:07:39;-3.40;99.90
1129;DHT22;553;51.038;7.216;2022-12-18T03:10:14;-3.40;99.90
1129;DHT22;553;51.038;7.216;2022-12-18T03:13:08;-3.30;99.90
1129;DHT22;553;51.038;7.216;2022-12-18T03:15:46;-3.40;99.90
1129;DHT22;553;51.038;7.216;2022-12-18T03:18:21;-3.40;99.90
1129;DHT22;553;51.038;7.216;2022-12-18T03:20:52;-3.40;99.90
1129;DHT22;553;51.038;7.216;2022-12-18T03:23:25;-3.40;99.90
1129;DHT22;553;51.038;7.216;2022-12-18T03:25:57;-3.40;99.90
1129;DHT22;553;51.038;7.216;2022-12-18T03:28:42;-3.40;99.90
1129;DHT22;553;51.038;7.216;2022-12-18T03:31:12;-3.50;99.90
1129;DHT22;553;51.038;7.216;2022-12-18T03:36:24;-3.50;99.90
1129;DHT22;553;51.038;7.216;2022-12-18T03:38:51;-3.50;99.90
1129;DHT22;553;51.038;7.216;2022-12-18T03:41:32;-3.50;99.90
1129;DHT22;553;51.038;7.216;2022-12-18T03:44:36;-3.60;99.90
1129;DHT22;553;51.038;7.216;2022-12-18T03:47:14;-3.50;99.90
1129;DHT22;553;51.038;7.216;2022-12-18T03:55:09;-3.50;99.90
1129;DHT22;553;51.038;7.216;2022-12-18T03:57:39;-3.40;99.90
1129;DHT22;553;51.038;7.216;2022-12-18T04:00:13;-3.40;99.90
1129;DHT22;553;51.038;7.216;2022-12-18T04:02:51;-3.40;99.90
1129;DHT22;553;51.038;7.216;2022-12-18T04:05:26;-3.40;99.90
1129;DHT22;553;51.038;7.216;2022-12-18T04:07:53;-3.50;99.90
1129;DHT22;553;51.038;7.216;2022-12-18T04:10:21;-3.40;99.90
1129;DHT22;553;51.038;7.216;2022-12-18T04:12:48;-3.40;99.90
1129;DHT22;553;51.038;7.216;2022-12-18T04:15:15;-3.50;99.90
1129;DHT22;553;51.038;7.216;2022-12-18T04:17:48;-3.50;99.90
1129;DHT22;553;51.038;7.216;2022-12-18T04:20:17;-3.50;99.90
1129;DHT22;553;51.038;7.216;2022-12-18T04:22:45;-3.50;99.90
1129;DHT22;553;51.038;7.216;2022-12-18T04:25:13;-3.50;99.90
1129;DHT22;553;51.038;7.216;2022-12-18T04:27:51;-3.50;99.90
1129;DHT22;553;51.038;7.216;2022-12-18T04:30:18;-3.50;99.90
1129;DHT22;553;51.038;7.216;2022-12-18T04:32:45;-3.50;99.90
1129;DHT22;553;51.038;7.216;2022-12-18T04:35:19;-3.40;99.90
1129;DHT22;553;51.038;7.216;2022-12-18T04:37:46;-3.40;99.90
1129;DHT22;553;51.038;7.216;2022-12-18T04:40:12;-3.40;99.90
1129;DHT22;553;51.038;7.216;2022-12-18T04:42:42;-3.40;99.90
1129;DHT22;553;51.038;7.216;2022-12-18T04:45:09;-3.40;99.90
1129;DHT22;553;51.038;7.216;2022-12-18T04:47:36;-3.40;99.90
1129;DHT22;553;51.038;7.216;2022-12-18T04:50:03;-3.40;99.90
1129;DHT22;553;51.038;7.216;2022-12-18T04:52:31;-3.30;99.90
1129;DHT22;553;51.038;7.216;2022-12-18T04:54:58;-3.40;99.90
1129;DHT22;553;51.038;7.216;2022-12-18T04:57:24;-3.40;99.90
1129;DHT22;553;51.038;7.216;2022-12-18T04:59:51;-3.40;99.90
1129;DHT22;553;51.038;7.216;2022-12-18T05:02:19;-3.40;99.90
1129;DHT22;553;51.038;7.216;2022-12-18T05:04:45;-3.40;99.90
1129;DHT22;553;51.038;7.216;2022-12-18T05:07:12;-3.40;99.90
1129;DHT22;553;51.038;7.216;2022-12-18T05:09:39;-3.40;99.90
1129;DHT22;553;51.038;7.216;2022-12-18T05:12:05;-3.40;99.90
1129;DHT22;553;51.038;7.216;2022-12-18T05:14:32;-3.40;99.90
1129;DHT22;553;51.038;7.216;2022-12-18T05:16:59;-3.40;99.90
1129;DHT22;553;51.038;7.216;2022-12-18T05:19:26;-3.40;99.90
1129;DHT22;553;51.038;7.216;2022-12-18T05:21:53;-3.40;99.90
1129;DHT22;553;51.038;7.216;2022-12-18T05:24:20;-3.40;99.90
1129;DHT22;553;51.038;7.216;2022-12-18T05:26:46;-3.30;99.90
1129;DHT22;553;51.038;7.216;2022-12-18T05:29:13;-3.30;99.90
1129;DHT22;553;51.038;7.216;2022-12-18T05:31:40;-3.30;99.90
1129;DHT22;553;51.038;7.216;2022-12-18T05:34:08;-3.30;99.90
1129;DHT22;553;51.038;7.216;2022-12-18T05:36:36;-3.30;99.90
1129;DHT22;553;51.038;7.216;2022-12-18T05:39:03;-3.20;99.90
1129;DHT22;553;51.038;7.216;2022-12-18T05:41:30;-3.20;99.90
1129;DHT22;553;51.038;7.216;2022-12-18T05:43:56;-3.20;99.90
1129;DHT22;553;51.038;7.216;2022-12-18T05:46:24;-3.20;99.90
1129;DHT22;553;51.038;7.216;2022-12-18T05:48:51;-3.20;99.90
1129;DHT22;553;51.038;7.216;2022-12-18T05:51:21;-3.20;99.90
1129;DHT22;553;51.038;7.216;2022-12-18T05:53:48;-3.30;99.90
1129;DHT22;553;51.038;7.216;2022-12-18T05:56:20;-3.20;99.90
1129;DHT22;553;51.038;7.216;2022-12-18T05:58:50;-3.20;99.90
1129;DHT22;553;51.038;7.216;2022-12-18T06:01:20;-3.20;99.90
1129;DHT22;553;51.038;7.216;2022-12-18T06:03:47;-3.20;99.90
1129;DHT22;553;51.038;7.216;2022-12-18T06:06:20;-3.10;99.90
1129;DHT22;553;51.038;7.216;2022-12-18T06:08:47;-3.20;99.90
1129;DHT22;553;51.038;7.216;2022-12-18T06:11:18;-3.10;99.90
1129;DHT22;553;51.038;7.216;2022-12-18T06:13:45;-3.10;99.90
1129;DHT22;553;51.038;7.216;2022-12-18T06:16:12;-3.20;99.90
1129;DHT22;553;51.038;7.216;2022-12-18T06:18:38;-3.20;99.90
1129;DHT22;553;51.038;7.216;2022-12-18T06:21:05;-3.10;99.90
1129;DHT22;553;51.038;7.216;2022-12-18T06:23:32;-3.20;99.90
1129;DHT22;553;51.038;7.216;2022-12-18T06:25:58;-3.20;99.90
1129;DHT22;553;51.038;7.216;2022-12-18T06:28:25;-3.30;99.90
1129;DHT22;553;51.038;7.216;2022-12-18T06:30:52;-3.20;99.90
1129;DHT22;553;51.038;7.216;2022-12-18T06:33:19;-3.20;99.90
1129;DHT22;553;51.038;7.216;2022-12-18T06:35:46;-3.20;99.90
1129;DHT22;553;51.038;7.216;2022-12-18T06:38:12;-3.20;99.90
1129;DHT22;553;51.038;7.216;2022-12-18T06:40:39;-3.20;99.90
1129;DHT22;553;51.038;7.216;2022-12-18T06:43:06;-3.20;99.90
1129;DHT22;553;51.038;7.216;2022-12-18T06:45:32;-3.20;99.90
1129;DHT22;553;51.038;7.216;2022-12-18T06:48:00;-3.20;99.90
1129;DHT22;553;51.038;7.216;2022-12-18T06:50:27;-3.20;99.90
1129;DHT22;553;51.038;7.216;2022-12-18T06:52:53;-3.30;99.90
1129;DHT22;553;51.038;7.216;2022-12-18T06:55:20;-3.30;99.90
1129;DHT22;553;51.038;7.216;2022-12-18T06:57:47;-3.20;99.90
1129;DHT22;553;51.038;7.216;2022-12-18T07:00:14;-3.20;99.90
1129;DHT22;553;51.038;7.216;2022-12-18T07:02:41;-3.10;99.90
1129;DHT22;553;51.038;7.216;2022-12-18T07:05:08;-3.20;99.90
1129;DHT22;553;51.038;7.216;2022-12-18T07:07:36;-3.20;99.90
1129;DHT22;553;51.038;7.216;2022-12-18T07:10:04;-3.20;99.90
1129;DHT22;553;51.038;7.216;2022-12-18T07:12:30;-3.30;99.90
1129;DHT22;553;51.038;7.216;2022-12-18T07:14:57;-3.20;99.90
1129;DHT22;553;51.038;7.216;2022-12-18T07:17:23;-3.20;99.90
1129;DHT22;553;51.038;7.216;2022-12-18T07:19:50;-3.10;99.90
1129;DHT22;553;51.038;7.216;2022-12-18T07:22:17;-3.10;99.90
1129;DHT22;553;51.038;7.216;2022-12-18T07:24:43;-3.10;99.90
1129;DHT22;553;51.038;7.216;2022-12-18T07:27:10;-3.10;99.90
1129;DHT22;553;51.038;7.216;2022-12-18T07:29:37;-3.10;99.90
1129;DHT22;553;51.038;7.216;2022-12-18T07:32:05;-3.10;99.90
1129;DHT22;553;51.038;7.216;2022-12-18T07:34:32;-3.10;99.90
1129;DHT22;553;51.038;7.216;2022-12-18T07:36:59;-3.00;99.90
1129;DHT22;553;51.038;7.216;2022-12-18T07:39:25;-3.00;99.90
1129;DHT22;553;51.038;7.216;2022-12-18T07:41:52;-2.90;99.90
1129;DHT22;553;51.038;7.216;2022-12-18T07:44:39;-2.90;99.90
1129;DHT22;553;51.038;7.216;2022-12-18T07:47:06;-2.90;99.90
1129;DHT22;553;51.038;7.216;2022-12-18T07:49:37;-2.90;99.90
1129;DHT22;553;51.038;7.216;2022-12-18T07:52:04;-2.80;99.90
1129;DHT22;553;51.038;7.216;2022-12-18T07:54:31;-2.80;99.90
1129;DHT22;553;51.038;7.216;2022-12-18T07:56:57;-2.80;99.90
1129;DHT22;553;51.038;7.216;2022-12-18T07:59:24;-2.70;99.90
1129;DHT22;553;51.038;7.216;2022-12-18T08:01:50;-2.70;99.90
1129;DHT22;553;51.038;7.216;2022-12-18T08:04:17;-2.70;99.90
1129;DHT22;553;51.038;7.216;2022-12-18T08:06:44;-2.70;99.90
1129;DHT22;553;51.038;7.216;2022-12-18T08:09:14;-2.60;99.90
1129;DHT22;553;51.038;7.216;2022-12-18T08:11:40;-2.60;99.90
1129;DHT22;553;51.038;7.216;2022-12-18T08:14:07;-2.60;99.90
1129;DHT22;553;51.038;7.216;2022-12-18T08:16:34;-2.60;99.90
1129;DHT22;553;51.038;7.216;2022-12-18T08:19:01;-2.50;99.90
1129;DHT22;553;51.038;7.216;2022-12-18T08:21:29;-2.50;99.90
1129;DHT22;553;51.038;7.216;2022-12-18T08:23:58;-2.30;99.90
1129;DHT22;553;51.038;7.216;2022-12-18T08:26:27;-2.30;99.90
1129;DHT22;553;51.038;7.216;2022-12-18T08:28:56;-2.30;99.60
1129;DHT22;553;51.038;7.216;2022-12-18T08:31:24;-2.30;99.60
1129;DHT22;553;51.038;7.216;2022-12-18T08:33:52;-2.30;99.70
1129;DHT22;553;51.038;7.216;2022-12-18T08:36:20;-2.20;99.70
1129;DHT22;553;51.038;7.216;2022-12-18T08:38:47;-2.20;99.50
1129;DHT22;553;51.038;7.216;2022-12-18T08:41:16;-2.10;99.30
1129;DHT22;553;51.038;7.216;2022-12-18T08:43:43;-2.10;99.10
1129;DHT22;553;51.038;7.216;2022-12-18T08:46:33;-2.00;98.90
1129;DHT22;553;51.038;7.216;2022-12-18T08:49:01;-1.90;98.60
1129;DHT22;553;51.038;7.216;2022-12-18T08:51:29;-1.90;98.50
1129;DHT22;553;51.038;7.216;2022-12-18T08:53:56;-1.90;98.40
1129;DHT22;553;51.038;7.216;2022-12-18T08:56:23;-1.80;98.50
1129;DHT22;553;51.038;7.216;2022-12-18T08:58:54;-1.80;97.90
1129;DHT22;553;51.038;7.216;2022-12-18T09:01:21;-1.80;98.00
1129;DHT22;553;51.038;7.216;2022-12-18T09:03:49;-1.70;98.10
1129;DHT22;553;51.038;7.216;2022-12-18T09:06:18;-1.60;98.10
1129;DHT22;553;51.038;7.216;2022-12-18T09:08:45;-1.60;98.10
1129;DHT22;553;51.038;7.216;2022-12-18T09:11:15;-1.50;97.50
1129;DHT22;553;51.038;7.216;2022-12-18T09:13:44;-1.50;97.10
1129;DHT22;553;51.038;7.216;2022-12-18T09:16:11;-1.40;97.10
1129;DHT22;553;51.038;7.216;2022-12-18T09:18:38;-1.30;96.80
1129;DHT22;553;51.038;7.216;2022-12-18T09:21:10;-1.30;96.60
1129;DHT22;553;51.038;7.216;2022-12-18T09:23:37;-1.20;95.90
1129;DHT22;553;51.038;7.216;2022-12-18T09:26:03;-1.10;95.60
1129;DHT22;553;51.038;7.216;2022-12-18T09:28:30;-1.00;95.10
1129;DHT22;553;51.038;7.216;2022-12-18T09:30:57;-0.90;94.90
1129;DHT22;553;51.038;7.216;2022-12-18T09:33:24;-0.80;94.50
1129;DHT22;553;51.038;7.216;2022-12-18T09:35:51;-0.70;94.00
1129;DHT22;553;51.038;7.216;2022-12-18T09:38:19;-0.70;93.90
1129;DHT22;553;51.038;7.216;2022-12-18T09:40:48;-0.50;93.60
1129;DHT22;553;51.038;7.216;2022-12-18T09:43:29;-0.40;93.10
1129;DHT22;553;51.038;7.216;2022-12-18T09:46:02;-0.20;92.00
1129;DHT22;553;51.038;7.216;2022-12-18T09:48:36;0.00;92.10
1129;DHT22;553;51.038;7.216;2022-12-18T09:53:57;0.20;91.30
1129;DHT22;553;51.038;7.216;2022-12-18T09:56:26;0.40;90.90
1129;DHT22;553;51.038;7.216;2022-12-18T09:58:59;0.50;90.80
1129;DHT22;553;51.038;7.216;2022-12-18T10:01:28;0.50;89.90
1129;DHT22;553;51.038;7.216;2022-12-18T10:04:09;0.40;89.80
1129;DHT22;553;51.038;7.216;2022-12-18T10:06:44;0.50;90.20
1129;DHT22;553;51.038;7.216;2022-12-18T10:12:00;0.60;89.30
1129;DHT22;553;51.038;7.216;2022-12-18T10:17:45;0.50;90.20
1129;DHT22;553;51.038;7.216;2022-12-18T10:25:38;0.70;89.20
1129;DHT22;553;51.038;7.216;2022-12-18T10:28:13;2.60;96.00
1129;DHT22;553;51.038;7.216;2022-12-18T10:30:41;2.60;86.80
1129;DHT22;553;51.038;7.216;2022-12-18T10:33:16;2.30;84.50
1129;DHT22;553;51.038;7.216;2022-12-18T10:35:44;1.80;85.50
1129;DHT22;553;51.038;7.216;2022-12-18T10:43:34;1.20;87.90
1129;DHT22;553;51.038;7.216;2022-12-18T10:54:01;1.30;88.00
1129;DHT22;553;51.038;7.216;2022-12-18T10:56:34;1.40;88.00
1129;DHT22;553;51.038;7.216;2022-12-18T10:59:03;1.50;88.30
1129;DHT22;553;51.038;7.216;2022-12-18T11:01:53;1.50;88.00
1129;DHT22;553;51.038;7.216;2022-12-18T11:04:28;1.50;88.20
1129;DHT22;553;51.038;7.216;2022-12-18T11:07:00;1.50;87.40
1129;DHT22;553;51.038;7.216;2022-12-18T11:09:35;1.40;87.80
1129;DHT22;553;51.038;7.216;2022-12-18T11:12:17;1.50;87.70
1129;DHT22;553;51.038;7.216;2022-12-18T11:14:49;1.40;87.80
1129;DHT22;553;51.038;7.216;2022-12-18T11:17:34;1.40;87.90
1129;DHT22;553;51.038;7.216;2022-12-18T11:20:04;1.30;88.00
1129;DHT22;553;51.038;7.216;2022-12-18T11:22:36;1.20;88.00
1129;DHT22;553;51.038;7.216;2022-12-18T11:25:17;1.20;88.60
1129;DHT22;553;51.038;7.216;2022-12-18T11:30:49;1.20;89.10
1129;DHT22;553;51.038;7.216;2022-12-18T11:33:20;1.40;89.20
1129;DHT22;553;51.038;7.216;2022-12-18T11:35:48;1.40;88.90
1129;DHT22;553;51.038;7.216;2022-12-18T11:38:23;1.40;88.30
1129;DHT22;553;51.038;7.216;2022-12-18T11:41:04;1.30;89.10
1129;DHT22;553;51.038;7.216;2022-12-18T11:43:39;1.30;89.10
1129;DHT22;553;51.038;7.216;2022-12-18T11:46:12;1.30;88.90
1129;DHT22;553;51.038;7.216;2022-12-18T11:48:52;1.40;89.60
1129;DHT22;553;51.038;7.216;2022-12-18T11:51:31;1.40;89.20
1129;DHT22;553;51.038;7.216;2022-12-18T11:54:00;1.30;89.10
1129;DHT22;553;51.038;7.216;2022-12-18T11:56:36;1.20;89.30
1129;DHT22;553;51.038;7.216;2022-12-18T12:01:55;1.20;89.60
1129;DHT22;553;51.038;7.216;2022-12-18T12:04:49;1.20;90.40
1129;DHT22;553;51.038;7.216;2022-12-18T12:10:04;1.30;91.10
1129;DHT22;553;51.038;7.216;2022-12-18T12:12:50;1.20;91.20
1129;DHT22;553;51.038;7.216;2022-12-18T12:18:28;1.20;92.00
1129;DHT22;553;51.038;7.216;2022-12-18T12:21:08;1.30;92.10
1129;DHT22;553;51.038;7.216;2022-12-18T12:24:04;1.20;91.50
1129;DHT22;553;51.038;7.216;2022-12-18T12:32:03;1.00;92.10
1129;DHT22;553;51.038;7.216;2022-12-18T12:35:12;0.80;92.20
1129;DHT22;553;51.038;7.216;2022-12-18T12:38:16;0.70;92.70
1129;DHT22;553;51.038;7.216;2022-12-18T12:40:48;0.60;93.70
1129;DHT22;553;51.038;7.216;2022-12-18T12:43:35;0.50;93.20
1129;DHT22;553;51.038;7.216;2022-12-18T12:46:17;0.50;93.70
1129;DHT22;553;51.038;7.216;2022-12-18T12:48:52;0.40;93.40
1129;DHT22;553;51.038;7.216;2022-12-18T12:51:27;0.40;94.00
1129;DHT22;553;51.038;7.216;2022-12-18T12:53:56;0.40;93.80
1129;DHT22;553;51.038;7.216;2022-12-18T12:56:27;0.30;93.80
1129;DHT22;553;51.038;7.216;2022-12-18T12:59:04;0.30;94.30
1129;DHT22;553;51.038;7.216;2022-12-18T13:04:41;0.40;93.50
1129;DHT22;553;51.038;7.216;2022-12-18T13:08:02;0.30;93.30
1129;DHT22;553;51.038;7.216;2022-12-18T13:12:56;0.30;94.00
1129;DHT22;553;51.038;7.216;2022-12-18T13:15:30;0.30;94.20
1129;DHT22;553;51.038;7.216;2022-12-18T13:18:04;0.20;94.40
1129;DHT22;553;51.038;7.216;2022-12-18T13:23:39;0.20;94.30
1129;DHT22;553;51.038;7.216;2022-12-18T13:34:23;0.00;94.60
1129;DHT22;553;51.038;7.216;2022-12-18T13:36:56;0.00;94.50
1129;DHT22;553;51.038;7.216;2022-12-18T13:39:31;-0.10;94.40
1129;DHT22;553;51.038;7.216;2022-12-18T13:44:41;0.60;92.40
1129;DHT22;553;51.038;7.216;2022-12-18T13:47:32;0.30;93.00
1129;DHT22;553;51.038;7.216;2022-12-18T13:50:01;0.20;94.00
1129;DHT22;553;51.038;7.216;2022-12-18T13:52:37;0.20;94.20
1129;DHT22;553;51.038;7.216;2022-12-18T13:55:13;0.20;94.20
1129;DHT22;553;51.038;7.216;2022-12-18T13:57:41;0.20;94.00
1129;DHT22;553;51.038;7.216;2022-12-18T14:00:25;0.20;93.80
1129;DHT22;553;51.038;7.216;2022-12-18T14:02:52;0.20;93.80
1129;DHT22;553;51.038;7.216;2022-12-18T14:07:54;0.30;93.90
1129;DHT22;553;51.038;7.216;2022-12-18T14:10:22;0.30;94.00
1129;DHT22;553;51.038;7.216;2022-12-18T14:13:13;0.30;94.10
1129;DHT22;553;51.038;7.216;2022-12-18T14:15:45;0.30;93.20
1129;DHT22;553;51.038;7.216;2022-12-18T14:20:47;0.10;92.90
1129;DHT22;553;51.038;7.216;2022-12-18T14:23:32;0.10;93.00
1129;DHT22;553;51.038;7.216;2022-12-18T14:26:00;0.00;93.50
1129;DHT22;553;51.038;7.216;2022-12-18T14:28:31;0.10;93.70
1129;DHT22;553;51.038;7.216;2022-12-18T14:30:58;0.00;93.60
1129;DHT22;553;51.038;7.216;2022-12-18T14:33:27;0.00;94.20
1129;DHT22;553;51.038;7.216;2022-12-18T14:35:59;0.20;94.00
1129;DHT22;553;51.038;7.216;2022-12-18T14:41:01;0.00;93.20
1129;DHT22;553;51.038;7.216;2022-12-18T14:43:31;-0.10;93.70
1129;DHT22;553;51.038;7.216;2022-12-18T14:45:59;0.50;96.40
1129;DHT22;553;51.038;7.216;2022-12-18T14:48:38;0.40;92.60
1129;DHT22;553;51.038;7.216;2022-12-18T14:51:25;0.20;92.60
1129;DHT22;553;51.038;7.216;2022-12-18T14:53:58;0.00;92.80
1129;DHT22;553;51.038;7.216;2022-12-18T14:56:34;-0.20;93.30
1129;DHT22;553;51.038;7.216;2022-12-18T14:59:12;-0.20;93.80
1129;DHT22;553;51.038;7.216;2022-12-18T15:02:01;-0.20;93.80
1129;DHT22;553;51.038;7.216;2022-12-18T15:04:34;-0.30;93.80
1129;DHT22;553;51.038;7.216;2022-12-18T15:12:49;-0.20;93.60
1129;DHT22;553;51.038;7.216;2022-12-18T15:18:15;-0.40;93.70
1129;DHT22;553;51.038;7.216;2022-12-18T15:20:59;-0.50;93.90
1129;DHT22;553;51.038;7.216;2022-12-18T15:23:53;-0.60;94.10
1129;DHT22;553;51.038;7.216;2022-12-18T15:26:21;-0.60;94.20
1129;DHT22;553;51.038;7.216;2022-12-18T15:28:49;-0.60;94.30
1129;DHT22;553;51.038;7.216;2022-12-18T15:36:22;-0.70;94.50
1129;DHT22;553;51.038;7.216;2022-12-18T15:38:54;-0.70;94.40
1129;DHT22;553;51.038;7.216;2022-12-18T15:41:32;-0.80;94.50
1129;DHT22;553;51.038;7.216;2022-12-18T15:44:01;-0.80;94.90
1129;DHT22;553;51.038;7.216;2022-12-18T15:46:29;-0.80;94.90
1129;DHT22;553;51.038;7.216;2022-12-18T15:48:57;-0.80;95.00
1129;DHT22;553;51.038;7.216;2022-12-18T15:51:29;-0.80;95.20
1129;DHT22;553;51.038;7.216;2022-12-18T15:54:00;-0.80;95.10
1129;DHT22;553;51.038;7.216;2022-12-18T15:56:27;-0.80;95.10
1129;DHT22;553;51.038;7.216;2022-12-18T15:59:20;-0.80;95.40
1129;DHT22;553;51.038;7.216;2022-12-18T16:01:49;-0.80;95.40
1129;DHT22;553;51.038;7.216;2022-12-18T16:04:19;-0.80;95.80
1129;DHT22;553;51.038;7.216;2022-12-18T16:06:47;-0.90;95.90
1129;DHT22;553;51.038;7.216;2022-12-18T16:09:35;-0.90;96.30
1129;DHT22;553;51.038;7.216;2022-12-18T16:12:02;-1.00;96.40
1129;DHT22;553;51.038;7.216;2022-12-18T16:14:30;-1.00;96.90
1129;DHT22;553;51.038;7.216;2022-12-18T16:17:02;-1.00;97.10
1129;DHT22;553;51.038;7.216;2022-12-18T16:19:29;-1.00;97.40
1129;DHT22;553;51.038;7.216;2022-12-18T16:21:58;-1.00;97.50
1129;DHT22;553;51.038;7.216;2022-12-18T16:24:26;-1.10;98.00
1129;DHT22;553;51.038;7.216;2022-12-18T16:26:55;-1.10;98.00
1129;DHT22;553;51.038;7.216;2022-12-18T16:29:23;-1.20;98.50
1129;DHT22;553;51.038;7.216;2022-12-18T16:31:55;-1.20;98.60
1129;DHT22;553;51.038;7.216;2022-12-18T16:34:32;-1.10;98.90
1129;DHT22;553;51.038;7.216;2022-12-18T16:37:05;-0.20;99.90
1129;DHT22;553;51.038;7.216;2022-12-18T16:39:33;-0.50;96.70
1129;DHT22;553;51.038;7.216;2022-12-18T16:42:02;-0.80;97.60
1129;DHT22;553;51.038;7.216;2022-12-18T16:44:35;-0.90;98.20
1129;DHT22;553;51.038;7.216;2022-12-18T16:47:03;-1.10;99.00
1129;DHT22;553;51.038;7.216;2022-12-18T16:49:30;-1.20;99.70
1129;DHT22;553;51.038;7.216;2022-12-18T16:51:57;-1.20;99.90
1129;DHT22;553;51.038;7.216;2022-12-18T16:54:24;-1.20;99.90
1129;DHT22;553;51.038;7.216;2022-12-18T16:56:51;-1.20;99.90
1129;DHT22;553;51.038;7.216;2022-12-18T16:59:18;-1.20;99.90
1129;DHT22;553;51.038;7.216;2022-12-18T17:01:46;-1.20;99.90
1129;DHT22;553;51.038;7.216;2022-12-18T17:04:13;-1.30;99.90
1129;DHT22;553;51.038;7.216;2022-12-18T17:06:43;-1.30;99.90
1129;DHT22;553;51.038;7.216;2022-12-18T17:09:14;-1.20;99.90
1129;DHT22;553;51.038;7.216;2022-12-18T17:11:44;-1.10;99.90
1129;DHT22;553;51.038;7.216;2022-12-18T17:14:18;-0.30;99.90
1129;DHT22;553;51.038;7.216;2022-12-18T17:16:45;-0.80;99.10
1129;DHT22;553;51.038;7.216;2022-12-18T17:19:13;-0.90;99.90
1129;DHT22;553;51.038;7.216;2022-12-18T17:21:44;-0.90;99.90
1129;DHT22;553;51.038;7.216;2022-12-18T17:24:12;-1.00;99.90
1129;DHT22;553;51.038;7.216;2022-12-18T17:26:39;-1.10;99.90
1129;DHT22;553;51.038;7.216;2022-12-18T17:29:06;-1.30;99.90
1129;DHT22;553;51.038;7.216;2022-12-18T17:31:33;-0.90;99.90
1129;DHT22;553;51.038;7.216;2022-12-18T17:34:01;-1.00;99.90
1129;DHT22;553;51.038;7.216;2022-12-18T17:36:29;-1.10;99.90
1129;DHT22;553;51.038;7.216;2022-12-18T17:38:59;-1.10;99.90
1129;DHT22;553;51.038;7.216;2022-12-18T17:41:28;-1.20;99.90
1129;DHT22;553;51.038;7.216;2022-12-18T17:44:04;-1.20;99.90
1129;DHT22;553;51.038;7.216;2022-12-18T17:46:32;-1.20;99.90
1129;DHT22;553;51.038;7.216;2022-12-18T17:49:01;-1.30;99.90
1129;DHT22;553;51.038;7.216;2022-12-18T17:51:28;-1.40;99.90
1129;DHT22;553;51.038;7.216;2022-12-18T17:53:55;-1.40;99.90
1129;DHT22;553;51.038;7.216;2022-12-18T17:56:23;-0.10;99.90
1129;DHT22;553;51.038;7.216;2022-12-18T17:58:50;-0.20;99.90
1129;DHT22;553;51.038;7.216;2022-12-18T18:01:20;-0.50;99.80
1129;DHT22;553;51.038;7.216;2022-12-18T18:03:48;-0.60;99.90
1129;DHT22;553;51.038;7.216;2022-12-18T18:06:19;-0.60;99.90
1129;DHT22;553;51.038;7.216;2022-12-18T18:08:46;-0.90;99.90
1129;DHT22;553;51.038;7.216;2022-12-18T18:11:15;-1.10;99.90
1129;DHT22;553;51.038;7.216;2022-12-18T18:14:04;-1.30;99.90
1129;DHT22;553;51.038;7.216;2022-12-18T18:16:39;-1.30;99.90
1129;DHT22;553;51.038;7.216;2022-12-18T18:19:08;-1.30;99.90
1129;DHT22;553;51.038;7.216;2022-12-18T18:21:41;-1.30;99.90
1129;DHT22;553;51.038;7.216;2022-12-18T18:24:11;-1.30;99.90
1129;DHT22;553;51.038;7.216;2022-12-18T18:26:39;-1.30;99.90
1129;DHT22;553;51.038;7.216;2022-12-18T18:29:07;-1.30;99.90
1129;DHT22;553;51.038;7.216;2022-12-18T18:31:35;-1.30;99.90
1129;DHT22;553;51.038;7.216;2022-12-18T18:34:08;-1.20;99.90